Time;durP1;ratioP1;P1;durP2;ratioP2;P2;SDS_P1;SDS_P2;PMS_P1;PMS_P2;Temp;Humidity;BMP_temperature;BMP_pressure;BME280_temperature;BME280_humidity;BME280_pressure;Samples;Min_cycle;Max_cycle;Signal;HPM_P1;HPM_P2
2023/10/03 00:01:35;;;;;;;50.15;14.77;;;;;;;19.00;98.21;100953.44;6100841;19;20094;-69
2023/10/03 00:03:45;;;;;;;36.42;12.57;;;;;;;18.99;98.28;100951.75;6100164;19;20056;-69
2023/10/03 00:05:51;;;;;;;43.25;13.85;;;;;;;18.94;98.46;100949.41;6100682;19;20006;-76
2023/10/03 00:07:58;;;;;;;41.42;15.05;;;;;;;18.89;98.50;100948.91;6099240;19;20489;-77
2023/10/03 00:10:03;;;;;;;40.88;12.18;;;;;;;18.92;98.78;100945.16;6101256;19;20103;-69
2023/10/03 00:12:08;;;;;;;45.75;13.73;;;;;;;19.05;97.54;100945.97;6098065;19;20093;-69
2023/10/03 00:14:18;;;;;;;43.65;13.15;;;;;;;18.96;97.76;100944.00;6098565;19;20003;-69
2023/10/03 00:16:21;;;;;;;47.38;13.85;;;;;;;19.01;97.65;100940.03;6100262;19;20002;-69
2023/10/03 00:18:27;;;;;;;45.65;14.20;;;;;;;19.24;95.62;100924.13;6098610;19;20055;-70
2023/10/03 00:20:36;;;;;;;47.28;13.65;;;;;;;19.33;95.07;100927.91;6097852;19;20113;-70
2023/10/03 00:22:42;;;;;;;40.33;12.85;;;;;;;19.33;95.10;100917.25;6094395;19;20797;-69
2023/10/03 00:24:50;;;;;;;42.97;12.73;;;;;;;19.60;93.02;100919.63;6095742;19;20625;-69
2023/10/03 00:26:56;;;;;;;45.22;13.05;;;;;;;19.50;94.05;100914.97;6095801;19;20109;-69
2023/10/03 00:29:03;;;;;;;40.45;11.52;;;;;;;19.51;93.68;100907.84;6099123;19;20007;-76
2023/10/03 00:31:10;;;;;;;38.17;11.73;;;;;;;19.76;92.02;100911.31;6099164;19;20014;-69
2023/10/03 00:33:17;;;;;;;44.60;12.85;;;;;;;19.78;91.63;100906.72;6096270;19;20021;-70
2023/10/03 00:35:23;;;;;;;48.42;13.70;;;;;;;19.73;91.80;100905.25;6095998;19;20134;-70
2023/10/03 00:37:32;;;;;;;41.70;12.18;;;;;;;19.66;92.49;100911.13;6096839;19;20099;-69
2023/10/03 00:39:37;;;;;;;39.80;11.88;;;;;;;19.64;92.40;100897.94;6099652;19;20439;-69
2023/10/03 00:41:44;;;;;;;43.97;13.18;;;;;;;19.56;92.55;100897.66;6096584;19;20068;-69
2023/10/03 00:43:54;;;;;;;41.03;13.52;;;;;;;19.65;92.31;100904.13;6096156;19;20114;-69
2023/10/03 00:45:59;;;;;;;37.67;11.48;;;;;;;19.69;92.05;100898.44;6098924;19;20025;-77
2023/10/03 00:48:08;;;;;;;47.40;14.45;;;;;;;19.69;91.92;100886.94;6098661;19;20002;-77
2023/10/03 00:50:16;;;;;;;44.50;13.07;;;;;;;19.58;92.52;100877.06;6099221;19;20083;-76
2023/10/03 00:52:21;;;;;;;45.13;12.57;;;;;;;19.62;92.06;100883.03;6100220;19;20338;-77
2023/10/03 00:54:30;;;;;;;46.65;13.63;;;;;;;19.53;92.70;100880.09;6097927;19;20035;-69
2023/10/03 00:56:33;;;;;;;39.80;13.85;;;;;;;19.53;92.90;100877.41;6092561;19;20416;-70
2023/10/03 00:58:40;;;;;;;37.17;11.38;;;;;;;19.61;92.33;100865.31;6097452;19;20027;-69
2023/10/03 01:00:49;;;;;;;42.05;13.25;;;;;;;19.60;92.22;100866.31;6095363;19;20507;-69
2023/10/03 01:02:54;;;;;;;42.10;14.02;;;;;;;19.63;92.09;100856.22;6095977;19;20032;-69
2023/10/03 01:05:03;;;;;;;43.92;12.32;;;;;;;19.58;92.26;100839.75;6099356;19;20565;-76
2023/10/03 01:07:08;;;;;;;40.78;11.60;;;;;;;19.57;92.30;100843.41;6100337;19;20006;-77
2023/10/03 01:09:23;;;;;;;40.53;12.32;;;;;;;19.47;93.23;100842.41;6097370;19;20794;-70
2023/10/03 01:11:34;;;;;;;36.85;11.15;;;;;;;19.52;92.78;100832.25;6103476;19;20024;-69
2023/10/03 01:13:39;;;;;;;43.72;14.00;;;;;;;19.51;92.88;100828.72;6102810;19;20022;-71
2023/10/03 01:15:46;;;;;;;43.25;14.43;;;;;;;19.57;92.53;100826.56;6104732;19;20014;-70
2023/10/03 01:17:57;;;;;;;40.13;14.13;;;;;;;19.59;92.19;100822.81;6097231;19;20368;-70
2023/10/03 01:20:08;;;;;;;38.65;13.25;;;;;;;19.62;92.11;100835.03;6083030;19;20471;-70
2023/10/03 01:22:16;;;;;;;42.10;13.00;;;;;;;19.59;92.44;100838.81;6103689;19;20006;-69
2023/10/03 01:24:24;;;;;;;34.90;11.60;;;;;;;19.64;91.74;100849.94;6089259;19;20604;-69
2023/10/03 01:26:31;;;;;;;42.20;13.00;;;;;;;19.55;92.56;100834.66;6101021;19;20006;-69
2023/10/03 01:28:38;;;;;;;50.58;14.57;;;;;;;19.56;92.57;100827.50;6102235;19;20501;-70
2023/10/03 01:30:45;;;;;;;37.97;12.18;;;;;;;19.56;92.43;100828.34;6103748;19;20031;-78
2023/10/03 01:32:57;;;;;;;37.70;11.35;;;;;;;19.58;92.58;100826.41;6102790;19;20509;-77
2023/10/03 01:35:11;;;;;;;38.03;13.65;;;;;;;19.58;92.47;100831.75;6103613;19;20002;-78
2023/10/03 01:37:16;;;;;;;35.33;11.25;;;;;;;19.56;92.89;100840.84;6104799;19;20018;-78
2023/10/03 01:39:24;;;;;;;39.42;12.60;;;;;;;19.50;93.44;100840.34;6106287;19;20006;-77
2023/10/03 01:41:29;;;;;;;39.40;11.20;;;;;;;19.49;93.47;100835.16;6108102;19;20447;-77
2023/10/03 01:43:38;;;;;;;37.65;11.40;;;;;;;19.50;93.58;100835.00;6102069;19;20121;-70
2023/10/03 01:45:41;;;;;;;36.10;12.38;;;;;;;19.57;93.15;100831.88;6104761;19;20078;-70
2023/10/03 01:47:51;;;;;;;39.08;12.23;;;;;;;19.51;93.91;100831.41;6103837;19;20025;-78
2023/10/03 01:49:58;;;;;;;42.22;12.85;;;;;;;19.46;94.04;100830.91;6102270;19;20002;-69
2023/10/03 01:52:06;;;;;;;44.00;12.75;;;;;;;19.66;93.57;100834.69;6105691;19;20015;-77
2023/10/03 01:54:12;;;;;;;31.77;11.10;;;;;;;19.69;93.51;100833.59;6105496;19;20340;-78
2023/10/03 01:56:19;;;;;;;37.85;12.75;;;;;;;19.69;93.13;100815.78;6104386;19;20022;-70
2023/10/03 01:58:26;;;;;;;43.47;11.63;;;;;;;19.65;93.74;100806.31;6104976;19;20763;-71
2023/10/03 02:00:35;;;;;;;37.55;12.00;;;;;;;19.79;93.37;100799.91;6102180;19;20006;-69
2023/10/03 02:02:38;;;;;;;39.78;11.05;;;;;;;19.85;93.25;100806.56;6094936;19;20027;-69
2023/10/03 02:04:45;;;;;;;33.58;9.77;;;;;;;19.80;93.42;100798.97;6105949;19;20010;-78
2023/10/03 02:06:51;;;;;;;32.35;10.50;;;;;;;19.82;93.38;100802.31;6103277;19;20630;-67
2023/10/03 02:08:56;;;;;;;32.50;10.30;;;;;;;19.88;93.35;100790.31;6102272;19;20025;-69
2023/10/03 02:11:05;;;;;;;35.88;10.95;;;;;;;19.89;93.55;100792.88;6100096;19;20003;-69
2023/10/03 02:13:17;;;;;;;33.63;10.75;;;;;;;19.83;94.28;100790.72;6102976;19;20400;-76
2023/10/03 02:15:25;;;;;;;32.50;10.40;;;;;;;19.90;94.41;100788.38;6106566;19;20438;-77
2023/10/03 02:17:28;;;;;;;36.60;12.48;;;;;;;19.82;95.28;100774.81;6102791;19;20010;-69
2023/10/03 02:19:37;;;;;;;34.63;9.90;;;;;;;19.96;94.79;100777.22;6106182;19;20568;-78
2023/10/03 02:21:59;;;;;;;31.23;10.63;;;;;;;19.87;95.40;100783.28;6103995;19;20003;-77
2023/10/03 02:24:04;;;;;;;34.53;9.93;;;;;;;19.85;95.79;100767.44;6103738;19;20011;-79
2023/10/03 02:26:16;;;;;;;37.55;10.73;;;;;;;19.88;95.79;100771.66;6104380;19;20031;-69
2023/10/03 02:28:26;;;;;;;37.28;10.52;;;;;;;19.83;96.40;100771.19;6104397;19;20002;-77
2023/10/03 02:30:33;;;;;;;33.15;9.50;;;;;;;19.96;95.91;100779.91;6102918;19;20039;-69
2023/10/03 02:32:38;;;;;;;35.30;9.52;;;;;;;19.90;96.52;100777.72;6098996;19;20007;-70
2023/10/03 02:34:51;;;;;;;32.15;10.85;;;;;;;19.93;96.51;100793.47;6103594;19;20010;-68
2023/10/03 02:36:59;;;;;;;28.52;9.60;;;;;;;19.94;96.79;100779.16;6104763;19;20042;-78
2023/10/03 02:39:06;;;;;;;27.63;8.40;;;;;;;19.89;96.74;100781.34;6099244;19;20003;-70
2023/10/03 02:41:14;;;;;;;27.08;9.38;;;;;;;19.88;96.92;100790.31;6102823;19;20377;-70
2023/10/03 02:43:17;;;;;;;25.90;9.00;;;;;;;19.91;96.84;100795.44;6102930;19;20007;-69
2023/10/03 02:45:25;;;;;;;30.90;9.50;;;;;;;19.94;96.19;100800.50;6101125;19;20370;-70
2023/10/03 02:47:32;;;;;;;24.90;8.02;;;;;;;19.88;96.14;100800.97;6102102;19;20070;-69
2023/10/03 02:49:37;;;;;;;23.00;8.38;;;;;;;19.82;96.55;100813.00;6102384;19;20007;-69
2023/10/03 02:51:44;;;;;;;23.80;8.57;;;;;;;19.76;96.49;100812.66;6099561;19;20043;-77
2023/10/03 02:53:49;;;;;;;23.48;7.65;;;;;;;19.75;96.38;100814.47;6102275;19;20074;-76
2023/10/03 02:55:52;;;;;;;24.60;7.45;;;;;;;19.71;95.92;100818.34;6103799;19;20483;-69
2023/10/03 02:58:00;;;;;;;19.80;7.63;;;;;;;19.60;96.78;100816.50;6102354;19;20006;-69
2023/10/03 03:00:12;;;;;;;18.80;7.03;;;;;;;19.51;97.00;100815.41;6101483;19;20006;-78
2023/10/03 03:02:21;;;;;;;20.20;6.40;;;;;;;19.46;97.30;100819.41;6102902;19;20040;-78
2023/10/03 03:04:26;;;;;;;21.20;7.25;;;;;;;19.36;98.10;100818.44;6104321;19;20014;-78
2023/10/03 03:06:32;;;;;;;21.15;6.82;;;;;;;19.28;99.29;100817.19;6103627;19;20018;-77
2023/10/03 03:08:39;;;;;;;20.30;6.55;;;;;;;19.22;100.00;100817.69;6102599;19;20014;-70
2023/10/03 03:10:51;;;;;;;16.77;6.35;;;;;;;19.11;100.00;100814.13;6101366;19;20014;-76
2023/10/03 03:12:57;;;;;;;17.75;5.72;;;;;;;19.06;100.00;100826.00;6099296;19;20018;-77
2023/10/03 03:14:59;;;;;;;16.92;5.75;;;;;;;18.99;100.00;100823.91;6103086;19;20499;-77
2023/10/03 03:17:13;;;;;;;17.92;7.03;;;;;;;18.92;100.00;100828.00;6098963;19;20021;-71
2023/10/03 03:19:23;;;;;;;18.98;6.70;;;;;;;18.85;100.00;100823.16;6103384;19;20007;-75
2023/10/03 03:21:32;;;;;;;22.50;7.05;;;;;;;18.79;100.00;100822.75;6102490;19;20078;-69
2023/10/03 03:23:42;;;;;;;21.88;7.40;;;;;;;18.74;100.00;100830.19;6100088;19;20449;-70
2023/10/03 03:25:49;;;;;;;16.75;6.68;;;;;;;18.69;100.00;100832.34;6103182;19;20377;-69
2023/10/03 03:27:57;;;;;;;15.45;5.63;;;;;;;18.62;100.00;100832.81;6101970;19;20040;-70
2023/10/03 03:30:33;;;;;;;34.05;7.95;;;;;;;18.54;100.00;100831.72;6102021;19;20002;-70
2023/10/03 03:32:37;;;;;;;21.75;6.55;;;;;;;18.53;100.00;100833.50;6097456;19;20021;-70
2023/10/03 03:34:47;;;;;;;19.52;7.60;;;;;;;18.48;100.00;100845.44;6099770;19;20370;-78
2023/10/03 03:36:55;;;;;;;25.13;7.07;;;;;;;18.46;100.00;100842.91;6100408;19;20014;-77
2023/10/03 03:39:00;;;;;;;18.77;6.60;;;;;;;18.48;100.00;100837.47;6099514;19;20011;-71
2023/10/03 03:41:06;;;;;;;19.77;6.90;;;;;;;18.42;100.00;100836.94;6101206;19;20007;-70
2023/10/03 03:43:12;;;;;;;23.25;6.25;;;;;;;18.40;100.00;100840.69;6102465;19;20479;-70
2023/10/03 03:45:21;;;;;;;24.70;6.72;;;;;;;18.42;100.00;100831.63;6097668;19;20010;-70
2023/10/03 03:47:27;;;;;;;14.70;5.38;;;;;;;18.40;100.00;100830.91;6101434;19;20002;-71
2023/10/03 03:49:35;;;;;;;17.35;6.68;;;;;;;18.34;100.00;100836.66;6102898;19;20088;-76
2023/10/03 03:51:41;;;;;;;20.60;8.23;;;;;;;18.36;100.00;100834.75;6103921;19;20006;-77
2023/10/03 03:53:47;;;;;;;24.25;7.05;;;;;;;18.30;100.00;100837.00;6098291;19;20006;-77
2023/10/03 03:55:52;;;;;;;28.15;7.25;;;;;;;18.32;100.00;100832.41;6102771;19;20457;-77
2023/10/03 03:57:54;;;;;;;28.75;7.00;;;;;;;18.33;100.00;100834.13;6103670;19;20002;-78
2023/10/03 04:00:10;;;;;;;22.05;6.95;;;;;;;18.29;100.00;100829.97;6101265;19;20345;-78
2023/10/03 04:02:16;;;;;;;15.82;6.32;;;;;;;18.29;100.00;100835.31;6103218;19;20078;-78
2023/10/03 04:04:22;;;;;;;26.17;6.85;;;;;;;18.28;100.00;100830.97;6104087;19;19999;-71
2023/10/03 04:06:27;;;;;;;17.40;6.03;;;;;;;18.25;100.00;100833.84;6102483;19;20318;-69
2023/10/03 04:08:35;;;;;;;16.95;5.85;;;;;;;18.21;100.00;100839.38;6101123;19;20032;-76
2023/10/03 04:10:47;;;;;;;22.15;7.38;;;;;;;18.20;100.00;100842.16;6095839;19;20348;-71
2023/10/03 04:12:52;;;;;;;17.73;7.00;;;;;;;18.19;100.00;100843.09;6103565;19;20574;-78
2023/10/03 04:14:57;;;;;;;15.93;5.90;;;;;;;18.16;100.00;100840.66;6101375;19;20495;-76
2023/10/03 04:17:03;;;;;;;17.98;6.22;;;;;;;18.14;100.00;100842.56;6099953;19;20014;-70
2023/10/03 04:19:07;;;;;;;21.02;6.60;;;;;;;18.06;100.00;100835.19;6101674;19;20411;-78
2023/10/03 04:21:14;;;;;;;21.98;6.38;;;;;;;18.08;100.00;100845.69;6101450;19;20401;-76
2023/10/03 04:23:19;;;;;;;12.90;5.43;;;;;;;18.02;100.00;100836.34;6099274;19;20425;-69
2023/10/03 04:25:28;;;;;;;15.27;5.95;;;;;;;18.04;100.00;100836.25;6099924;19;20010;-69
2023/10/03 04:27:33;;;;;;;17.92;6.93;;;;;;;18.05;100.00;100837.94;6100484;19;20007;-71
2023/10/03 04:29:41;;;;;;;20.52;6.65;;;;;;;18.06;100.00;100839.63;6097487;19;19999;-77
2023/10/03 04:31:46;;;;;;;18.30;5.82;;;;;;;18.05;100.00;100830.81;6098015;19;20010;-70
2023/10/03 04:33:52;;;;;;;18.08;6.28;;;;;;;18.07;100.00;100847.50;6100230;19;20014;-69
2023/10/03 04:36:03;;;;;;;17.90;5.80;;;;;;;18.03;100.00;100818.56;6100182;19;20027;-70
2023/10/03 04:38:08;;;;;;;15.38;5.80;;;;;;;18.08;100.00;100832.38;6099305;19;20642;-78
2023/10/03 04:40:16;;;;;;;14.30;4.85;;;;;;;18.10;100.00;100841.13;6099829;19;20558;-70
2023/10/03 04:42:24;;;;;;;15.27;5.07;;;;;;;18.11;100.00;100843.66;6098383;19;20023;-71
2023/10/03 04:44:29;;;;;;;13.38;4.50;;;;;;;18.07;100.00;100833.38;6099868;19;20515;-71
2023/10/03 04:46:34;;;;;;;13.35;4.63;;;;;;;18.08;100.00;100832.38;6100622;19;20007;-73
2023/10/03 04:48:42;;;;;;;14.02;4.45;;;;;;;18.06;100.00;100845.81;6097324;19;20464;-71
2023/10/03 04:50:50;;;;;;;11.80;5.05;;;;;;;18.02;100.00;100851.47;6099479;19;20037;-78
2023/10/03 04:52:56;;;;;;;12.63;4.40;;;;;;;18.05;100.00;100856.53;6096596;19;20421;-78
2023/10/03 04:54:59;;;;;;;12.88;4.50;;;;;;;18.06;100.00;100859.13;6100695;19;20020;-77
2023/10/03 04:57:05;;;;;;;10.40;3.80;;;;;;;18.03;100.00;100855.81;6099248;19;20036;-71
2023/10/03 04:59:14;;;;;;;14.52;4.35;;;;;;;18.05;100.00;100857.38;6094469;19;20768;-71
2023/10/03 05:01:19;;;;;;;20.75;5.75;;;;;;;18.08;100.00;100873.13;6100257;19;20064;-77
2023/10/03 05:03:25;;;;;;;14.35;4.93;;;;;;;18.09;100.00;100872.19;6098981;19;20007;-69
2023/10/03 05:05:32;;;;;;;15.18;4.97;;;;;;;18.10;100.00;100873.03;6100257;19;20014;-71
2023/10/03 05:07:35;;;;;;;23.17;5.47;;;;;;;18.07;100.00;100863.47;6101803;19;20026;-78
2023/10/03 05:09:40;;;;;;;13.55;4.90;;;;;;;18.10;100.00;100883.66;6099504;19;20011;-77
2023/10/03 05:11:48;;;;;;;18.63;5.50;;;;;;;18.12;100.00;100879.09;6098599;19;20011;-77
2023/10/03 05:13:54;;;;;;;15.30;4.82;;;;;;;18.08;100.00;100872.28;6099438;19;20038;-79
2023/10/03 05:16:02;;;;;;;14.27;4.90;;;;;;;18.07;100.00;100875.91;6100280;19;20059;-77
2023/10/03 05:18:06;;;;;;;14.48;4.30;;;;;;;18.11;100.00;100866.72;6097364;19;20475;-70
2023/10/03 05:20:17;;;;;;;19.83;5.35;;;;;;;18.08;100.00;100869.63;6098448;19;20360;-77
2023/10/03 05:22:24;;;;;;;10.63;4.15;;;;;;;18.09;100.00;100868.66;6096562;19;20383;-77
2023/10/03 05:24:29;;;;;;;14.82;4.60;;;;;;;18.09;100.00;100871.31;6097422;19;20405;-77
2023/10/03 05:26:34;;;;;;;16.38;4.72;;;;;;;18.10;100.00;100871.22;6098570;19;20102;-70
2023/10/03 05:28:41;;;;;;;16.15;5.00;;;;;;;18.05;100.00;100865.38;6093917;19;20384;-70
2023/10/03 05:30:46;;;;;;;15.45;5.05;;;;;;;18.07;100.00;100859.94;6096372;19;20045;-69
2023/10/03 05:32:54;;;;;;;12.05;5.00;;;;;;;18.05;100.00;100872.50;6098468;19;20011;-71
2023/10/03 05:35:00;;;;;;;15.25;6.57;;;;;;;18.03;100.00;100888.56;6098643;19;20754;-69
2023/10/03 05:37:07;;;;;;;15.75;4.95;;;;;;;18.05;100.00;100891.13;6097211;19;20495;-71
2023/10/03 05:39:15;;;;;;;12.75;4.40;;;;;;;18.01;100.00;100906.44;6096940;19;20019;-70
2023/10/03 05:41:25;;;;;;;17.75;5.30;;;;;;;17.95;100.00;100909.53;6094672;19;20605;-80
2023/10/03 05:43:30;;;;;;;12.70;4.50;;;;;;;17.88;100.00;100906.47;6098556;19;20044;-77
2023/10/03 05:45:36;;;;;;;17.90;5.40;;;;;;;17.86;100.00;100915.50;6099597;19;20007;-78
2023/10/03 05:47:40;;;;;;;17.77;3.60;;;;;;;17.80;100.00;100908.81;6101761;19;20006;-77
2023/10/03 05:49:51;;;;;;;16.35;6.40;;;;;;;17.71;100.00;100922.69;6097896;19;20003;-76
2023/10/03 05:51:58;;;;;;;9.98;3.00;;;;;;;17.73;100.00;100923.44;6098633;19;20014;-70
2023/10/03 05:54:02;;;;;;;10.02;3.67;;;;;;;17.69;100.00;100916.63;6095460;19;20017;-70
2023/10/03 05:56:10;;;;;;;8.05;2.83;;;;;;;17.68;100.00;100914.94;6099214;19;20011;-70
2023/10/03 05:58:15;;;;;;;11.43;3.42;;;;;;;17.61;100.00;100924.28;6100383;19;20022;-69
2023/10/03 06:00:21;;;;;;;10.60;4.45;;;;;;;17.53;100.00;100919.47;6103567;19;20006;-70
2023/10/03 06:02:26;;;;;;;9.50;3.25;;;;;;;17.47;100.00;100926.06;6102640;19;19998;-70
2023/10/03 06:04:36;;;;;;;10.02;3.28;;;;;;;17.48;100.00;100940.19;6103793;19;20475;-77
2023/10/03 06:06:44;;;;;;;11.82;3.00;;;;;;;17.49;100.00;100948.06;6104616;19;20059;-78
2023/10/03 06:08:49;;;;;;;8.60;2.33;;;;;;;17.54;100.00;100950.44;6106527;19;20465;-77
2023/10/03 06:10:57;;;;;;;5.53;2.60;;;;;;;17.53;100.00;100949.56;6104159;19;23775;-77
2023/10/03 06:13:00;;;;;;;6.70;2.72;;;;;;;17.50;100.00;100967.53;6101891;19;20022;-78
2023/10/03 06:15:06;;;;;;;8.00;2.70;;;;;;;17.55;100.00;100960.94;6102705;19;20014;-78
2023/10/03 06:17:12;;;;;;;8.57;2.75;;;;;;;17.53;100.00;100969.97;6105508;19;20064;-78
2023/10/03 06:19:18;;;;;;;7.35;2.95;;;;;;;17.51;100.00;100970.09;6103392;19;20013;-70
2023/10/03 06:21:24;;;;;;;7.88;2.40;;;;;;;17.49;100.00;100979.97;6101515;19;20014;-72
2023/10/03 06:23:37;;;;;;;11.90;3.25;;;;;;;17.46;100.00;100988.16;6100162;19;19998;-78
2023/10/03 06:25:44;;;;;;;10.88;2.40;;;;;;;17.46;100.00;100985.50;6103328;19;20104;-79
2023/10/03 06:27:52;;;;;;;7.00;2.28;;;;;;;17.40;100.00;100995.66;6103230;19;20027;-71
2023/10/03 06:29:58;;;;;;;8.18;2.40;;;;;;;17.38;100.00;101003.75;6104371;19;20035;-72
2023/10/03 06:32:03;;;;;;;9.98;2.75;;;;;;;17.38;100.00;100990.47;6106017;19;20053;-77
2023/10/03 06:34:09;;;;;;;12.93;3.28;;;;;;;17.35;100.00;101006.56;6102727;19;20416;-77
2023/10/03 06:36:14;;;;;;;11.93;3.17;;;;;;;17.43;100.00;101012.25;6100034;19;20079;-70
2023/10/03 06:38:19;;;;;;;9.38;2.80;;;;;;;17.22;100.00;101003.91;6099275;19;20007;-69
2023/10/03 06:40:27;;;;;;;9.02;3.13;;;;;;;17.07;100.00;101005.75;6100194;19;20458;-78
2023/10/03 06:42:36;;;;;;;8.05;3.30;;;;;;;17.03;100.00;101006.88;6102993;19;20594;-70
2023/10/03 06:44:42;;;;;;;9.07;3.13;;;;;;;16.89;100.00;101009.59;6100940;19;20007;-71
2023/10/03 06:46:50;;;;;;;10.40;2.90;;;;;;;16.84;100.00;101015.19;6101817;19;20018;-71
2023/10/03 06:48:56;;;;;;;10.40;2.85;;;;;;;16.84;100.00;101024.97;6094481;19;20023;-71
2023/10/03 06:51:04;;;;;;;8.52;2.85;;;;;;;16.66;100.00;101027.78;6102481;19;20577;-78
2023/10/03 06:53:11;;;;;;;13.85;4.20;;;;;;;16.63;100.00;101041.25;6102809;19;20014;-78
2023/10/03 06:55:19;;;;;;;9.23;3.60;;;;;;;16.61;100.00;101056.44;6091660;19;20060;-77
2023/10/03 06:57:29;;;;;;;7.97;2.63;;;;;;;16.47;100.00;101064.38;6092460;19;20011;-69
2023/10/03 06:59:37;;;;;;;8.38;3.42;;;;;;;16.43;100.00;101077.00;6098934;19;20436;-70
2023/10/03 07:02:01;;;;;;;4.90;2.08;;;;;;;16.35;100.00;101073.97;6093938;19;20096;-70
2023/10/03 07:04:08;;;;;;;6.18;2.05;;;;;;;16.37;100.00;101100.38;6099295;19;20082;-70
2023/10/03 07:06:12;;;;;;;8.00;2.10;;;;;;;16.12;100.00;101101.84;6098565;19;20015;-70
2023/10/03 07:08:20;;;;;;;5.78;1.92;;;;;;;16.05;100.00;101108.47;6099386;19;20018;-69
2023/10/03 07:10:25;;;;;;;4.40;2.05;;;;;;;15.97;100.00;101116.84;6098366;19;20694;-69
2023/10/03 07:12:33;;;;;;;7.80;2.40;;;;;;;15.95;100.00;101112.59;6096542;19;20015;-69
2023/10/03 07:14:39;;;;;;;3.15;1.38;;;;;;;15.93;100.00;101122.41;6094247;19;20264;-77
2023/10/03 07:16:47;;;;;;;6.00;2.00;;;;;;;15.96;100.00;101112.50;6103825;19;20006;-76
2023/10/03 07:18:55;;;;;;;6.00;1.65;;;;;;;15.87;100.00;101114.84;6103281;19;20007;-77
2023/10/03 07:21:00;;;;;;;5.65;1.83;;;;;;;16.09;100.00;101141.81;6101561;19;20006;-77
2023/10/03 07:23:06;;;;;;;5.10;1.92;;;;;;;15.95;100.00;101137.28;6102535;19;20042;-77
2023/10/03 07:25:12;;;;;;;4.80;1.80;;;;;;;15.96;100.00;101140.81;6104376;19;20492;-77
2023/10/03 07:27:20;;;;;;;6.00;2.28;;;;;;;16.01;100.00;101136.09;6104315;19;19999;-78
2023/10/03 07:29:28;;;;;;;6.85;1.73;;;;;;;16.01;100.00;101133.47;6104584;19;20006;-77
2023/10/03 07:31:34;;;;;;;6.50;1.80;;;;;;;15.93;100.00;101156.88;6098809;19;20007;-76
2023/10/03 07:33:37;;;;;;;8.02;1.73;;;;;;;15.86;100.00;101158.19;6102829;19;20113;-76
2023/10/03 07:35:44;;;;;;;7.03;1.60;;;;;;;15.87;100.00;101154.59;6101588;19;19999;-78
2023/10/03 07:37:54;;;;;;;5.22;1.55;;;;;;;15.86;100.00;101152.91;6099791;19;20007;-79
2023/10/03 07:40:00;;;;;;;3.88;1.45;;;;;;;15.90;100.00;101163.22;6096383;19;20014;-77
2023/10/03 07:42:06;;;;;;;7.38;1.90;;;;;;;15.84;100.00;101181.28;6102848;19;20032;-78
2023/10/03 07:44:10;;;;;;;7.97;2.00;;;;;;;15.85;100.00;101182.97;6099395;19;20006;-78
2023/10/03 07:46:22;;;;;;;11.57;3.00;;;;;;;15.80;100.00;101186.75;6096618;19;20083;-77
2023/10/03 07:48:29;;;;;;;12.23;2.05;;;;;;;15.89;100.00;101200.41;6097771;19;20007;-77
2023/10/03 07:50:34;;;;;;;7.63;1.95;;;;;;;15.91;100.00;101204.69;6101214;19;20015;-78
2023/10/03 07:52:41;;;;;;;9.20;2.55;;;;;;;15.98;100.00;101215.78;6091572;19;20569;-77
2023/10/03 07:54:54;;;;;;;9.35;1.60;;;;;;;16.04;100.00;101227.84;6090813;19;20413;-79
2023/10/03 07:57:04;;;;;;;6.05;1.67;;;;;;;16.07;100.00;101238.28;6100889;19;20544;-77
2023/10/03 07:59:10;;;;;;;15.00;2.53;;;;;;;16.01;100.00;101237.69;6095536;19;20014;-69
2023/10/03 08:01:18;;;;;;;4.65;1.60;;;;;;;16.00;100.00;101235.97;6098094;19;20014;-69
2023/10/03 08:03:28;;;;;;;11.38;2.03;;;;;;;16.00;100.00;101243.91;6091922;19;20015;-70
2023/10/03 08:05:33;;;;;;;7.28;1.98;;;;;;;15.98;100.00;101252.88;6093181;19;20018;-70
2023/10/03 08:07:39;;;;;;;5.03;1.70;;;;;;;15.98;100.00;101261.72;6091812;19;20003;-69
2023/10/03 08:09:46;;;;;;;4.80;1.30;;;;;;;15.96;100.00;101265.41;6100269;19;20628;-69
2023/10/03 08:11:52;;;;;;;7.53;1.60;;;;;;;15.96;100.00;101263.59;6100088;19;20455;-69
2023/10/03 08:14:11;;;;;;;4.90;1.30;;;;;;;15.91;100.00;101264.81;6100269;19;20017;-68
2023/10/03 08:16:22;;;;;;;6.43;1.80;;;;;;;15.95;100.00;101284.88;6101311;19;20527;-68
2023/10/03 08:18:27;;;;;;;5.72;1.45;;;;;;;15.95;100.00;101292.81;6100848;19;20385;-68
2023/10/03 08:20:36;;;;;;;6.50;1.65;;;;;;;15.71;100.00;101303.00;6098875;19;20010;-70
2023/10/03 08:22:41;;;;;;;2.60;1.25;;;;;;;15.73;100.00;101307.28;6078316;19;20077;-69
2023/10/03 08:24:46;;;;;;;7.82;1.40;;;;;;;15.83;100.00;101312.09;6097678;19;20714;-70
2023/10/03 08:26:51;;;;;;;5.13;2.05;;;;;;;15.79;100.00;101309.56;6101557;19;19999;-69
2023/10/03 08:29:04;;;;;;;4.15;1.10;;;;;;;15.77;100.00;101324.72;6099607;19;20043;-70
2023/10/03 08:31:10;;;;;;;5.72;1.67;;;;;;;15.91;100.00;101317.81;6101929;19;20035;-76
2023/10/03 08:33:19;;;;;;;5.00;1.40;;;;;;;15.93;100.00;101321.22;6095874;19;20044;-77
2023/10/03 08:35:34;;;;;;;4.88;1.45;;;;;;;15.95;100.00;101333.44;6086239;19;20015;-77
2023/10/03 08:37:41;;;;;;;5.03;1.25;;;;;;;16.03;100.00;101335.66;6100783;19;20014;-78
2023/10/03 08:39:45;;;;;;;3.63;1.13;;;;;;;15.96;100.00;101343.13;6099795;19;20451;-79
2023/10/03 08:42:12;;;;;;;7.88;1.70;;;;;;;15.90;100.00;101345.25;6092627;19;20270;-76
2023/10/03 08:44:20;;;;;;;5.40;1.15;;;;;;;15.89;100.00;101331.13;6090917;19;20005;-68
2023/10/03 08:46:36;;;;;;;4.57;1.00;;;;;;;15.79;100.00;101343.16;6100524;19;20018;-76
2023/10/03 08:48:45;;;;;;;12.02;2.80;;;;;;;15.67;100.00;101360.56;6095741;19;20006;-76
2023/10/03 08:50:52;;;;;;;5.63;1.10;;;;;;;15.55;100.00;101367.38;6093866;19;20035;-75
2023/10/03 08:53:12;;;;;;;5.07;1.83;;;;;;;15.42;100.00;101374.25;6095006;19;20363;-77
2023/10/03 08:55:22;;;;;;;3.83;1.50;;;;;;;15.36;100.00;101378.06;6099678;19;20075;-78
2023/10/03 08:57:31;;;;;;;3.22;1.30;;;;;;;15.34;100.00;101394.97;6091769;19;20023;-77
2023/10/03 08:59:40;;;;;;;4.47;1.80;;;;;;;15.42;100.00;101394.56;6098870;19;20564;-77
2023/10/03 09:01:48;;;;;;;4.45;1.08;;;;;;;15.52;100.00;101401.13;6096590;19;20354;-77
2023/10/03 09:04:04;;;;;;;6.50;1.38;;;;;;;15.44;100.00;101409.44;6099440;19;20006;-76
2023/10/03 09:06:10;;;;;;;4.38;1.05;;;;;;;15.42;100.00;101408.66;6098473;19;20095;-78
2023/10/03 09:08:17;;;;;;;3.58;1.15;;;;;;;15.46;100.00;101404.09;6094591;19;20405;-78
2023/10/03 09:10:23;;;;;;;3.40;1.40;;;;;;;15.41;100.00;101406.97;6098615;19;20011;-77
2023/10/03 09:12:31;;;;;;;4.07;1.20;;;;;;;15.41;100.00;101411.41;6096034;19;20083;-77
2023/10/03 09:14:39;;;;;;;3.92;1.40;;;;;;;15.39;100.00;101429.16;6092051;19;19998;-78
2023/10/03 09:16:50;;;;;;;5.18;1.30;;;;;;;15.27;100.00;101447.41;6098675;19;20019;-77
2023/10/03 09:19:00;;;;;;;4.13;1.10;;;;;;;14.91;100.00;101456.22;6096376;19;20536;-76
2023/10/03 09:21:05;;;;;;;5.30;1.27;;;;;;;14.81;100.00;101449.66;6096264;19;20499;-80
2023/10/03 09:23:15;;;;;;;2.35;0.90;;;;;;;14.99;100.00;101452.34;6101792;19;20047;-81
2023/10/03 09:25:23;;;;;;;4.50;1.13;;;;;;;14.85;100.00;101458.28;6100691;19;20022;-74
2023/10/03 09:27:34;;;;;;;2.63;1.30;;;;;;;15.08;100.00;101462.47;6096713;19;20155;-74
2023/10/03 09:29:39;;;;;;;6.32;1.45;;;;;;;14.98;100.00;101466.50;6098489;19;20291;-76
2023/10/03 09:31:51;;;;;;;4.18;1.60;;;;;;;15.03;100.00;101475.06;6098954;19;20023;-75
2023/10/03 09:34:05;;;;;;;4.97;1.27;;;;;;;15.00;100.00;101472.59;6087546;19;20436;-74
2023/10/03 09:36:11;;;;;;;6.93;1.67;;;;;;;15.01;100.00;101476.94;6101295;19;20521;-75
2023/10/03 09:38:19;;;;;;;1.92;1.00;;;;;;;15.12;100.00;101477.28;6104597;19;20485;-79
2023/10/03 09:40:25;;;;;;;5.47;1.55;;;;;;;14.93;100.00;101485.28;6104314;19;20011;-80
2023/10/03 09:42:39;;;;;;;8.45;1.55;;;;;;;14.98;100.00;101482.38;6108252;19;20036;-76